Flight Track Log - Related Links

Times and Time Zones

All times are in EST time to prevent confusion due to time zone crossing. See the UPS378 flight status page for this flight to view local times or setup timezone preferences in your user account.


Time Position Orientation Groundspeed Altitude Reporting Facility
EST Latitude Longitude Course Direction KTS MPH feet Rate Location/Type
Thu 02:18:08 PM 25.8003 -80.2744 114° Southeast 152 175 900  Level Miami Center
Thu 02:19:03 PM 25.7825 -80.2303 114° Southeast 195 224 2,100 1,909 Climbing Miami Center
Thu 02:19:58 PM 25.7544 -80.1742 119° Southeast 244 281 4,400 2,239 Climbing Miami Center
Thu 02:20:10 PM 25.7425 -80.1553 125° Southeast 247 284 4,600 2,507 Climbing Miami Center
Thu 02:21:05 PM 25.6811 -80.1836 203° Southwest 282 325 7,200 2,500 Climbing Miami Center
Thu 02:21:10 PM 25.6747 -80.1858 197° South 280 322 7,100 2,492 Descending Miami Center
Thu 02:22:10 PM 25.6092 -80.2231 207° Southwest 299 344 9,900 2,200 Climbing Miami Center
Thu 02:23:10 PM 25.5269 -80.2600 202° Southwest 311 358 11,500 1,850 Climbing Miami Center
Thu 02:24:10 PM 25.4361 -80.3056 204° Southwest 336 387 13,600 2,100 Climbing Miami Center
Thu 02:25:10 PM 25.3389 -80.3511 203° Southwest 362 417 15,700 2,100 Climbing Miami Center
Thu 02:26:10 PM 25.2456 -80.4106 210° Southwest 375 432 17,800 2,050 Climbing Miami Center
Thu 02:27:10 PM 25.1522 -80.4722 211° Southwest 385 443 19,800 2,150 Climbing Miami Center
Thu 02:28:10 PM 25.0544 -80.5356 210° Southwest 403 464 22,100 2,100 Climbing Miami Center
Thu 02:29:10 PM 24.9525 -80.6014 210° Southwest 417 480 24,000 1,800 Climbing Miami Center
Thu 02:30:10 PM 24.8506 -80.6717 212° Southwest 429 494 25,700 1,800 Climbing Miami Center
Thu 02:31:10 PM 24.7422 -80.7414 210° Southwest 442 509 27,600 1,750 Climbing Miami Center
Thu 02:32:10 PM 24.6317 -80.8133 211° Southwest 453 521 29,200 1,550 Climbing Miami Center
Thu 02:33:10 PM 24.5211 -80.8875 211° Southwest 459 528 30,700 1,700 Climbing Miami Center
Thu 02:34:10 PM 24.4042 -80.9611 210° Southwest 477 549 32,600 1,900 Climbing Miami Center
Thu 02:35:10 PM 24.2892 -81.0350 210° Southwest 477 549 34,500 1,200 Climbing Miami Center
Thu 02:36:10 PM 24.1744 -81.1061 209° Southwest 477 549 35,000 250 Climbing Miami Center
Thu 02:37:10 PM 24.0594 -81.1819 211° Southwest 482 555 35,000  Level Miami Center
Thu 02:38:10 PM 23.9422 -81.2619 212° Southwest 487 560 35,000  Level Miami Center
Thu 02:40:00 PM 23.7676 -81.3849 217° Southwest  Level FlightAware Approximate
Thu 02:47:00 PM 23.1229 -81.9056 217° Southwest  Level FlightAware Approximate
Thu 02:48:00 PM 23.0306 -81.9796 216° Southwest  Level FlightAware Approximate
Thu 02:49:00 PM 22.9384 -82.0535 216° Southwest  Level FlightAware Approximate
Thu 02:50:00 PM 22.8460 -82.1272 216° Southwest  Level FlightAware Approximate
Thu 02:51:00 PM 22.7537 -82.2009 216° Southwest  Level FlightAware Approximate
Thu 02:52:00 PM 22.6613 -82.2745 216° Southwest  Level FlightAware Approximate
Thu 02:53:00 PM 22.5689 -82.3480 216° Southwest  Level FlightAware Approximate
Thu 02:54:00 PM 22.4764 -82.4213 216° Southwest  Level FlightAware Approximate
Thu 02:55:00 PM 22.3840 -82.4946 216° Southwest  Level FlightAware Approximate
Thu 02:56:00 PM 22.2915 -82.5678 216° Southwest  Level FlightAware Approximate
Thu 02:57:00 PM 22.1989 -82.6409 216° Southwest  Level FlightAware Approximate
Thu 02:58:00 PM 22.1063 -82.7139 216° Southwest  Level FlightAware Approximate
Thu 02:59:00 PM 22.0137 -82.7868 216° Southwest  Level FlightAware Approximate
Thu 03:00:00 PM 21.9211 -82.8596 216° Southwest  Level FlightAware Approximate
Thu 03:01:00 PM 21.8284 -82.9323 216° Southwest  Level FlightAware Approximate
Thu 03:02:00 PM 21.7357 -83.0049 216° Southwest  Level FlightAware Approximate
Thu 03:03:00 PM 21.6430 -83.0774 216° Southwest  Level FlightAware Approximate
Thu 03:04:00 PM 21.5502 -83.1498 216° Southwest  Level FlightAware Approximate
Thu 03:05:00 PM 21.4574 -83.2221 216° Southwest  Level FlightAware Approximate
Thu 03:06:00 PM 21.3646 -83.2944 216° Southwest  Level FlightAware Approximate
Thu 03:07:00 PM 21.2717 -83.3665 216° Southwest  Level FlightAware Approximate
Thu 03:08:00 PM 21.1788 -83.4386 216° Southwest  Level FlightAware Approximate
Thu 03:09:00 PM 21.0859 -83.5105 216° Southwest  Level FlightAware Approximate
Thu 03:10:00 PM 20.9929 -83.5824 216° Southwest  Level FlightAware Approximate
Thu 03:11:00 PM 20.9000 -83.6542 216° Southwest  Level FlightAware Approximate
Thu 03:12:00 PM 20.8069 -83.7259 216° Southwest  Level FlightAware Approximate
Thu 03:13:00 PM 20.7139 -83.7975 216° Southwest  Level FlightAware Approximate
Thu 03:14:00 PM 20.6208 -83.8690 216° Southwest  Level FlightAware Approximate
Thu 03:15:00 PM 20.5277 -83.9405 216° Southwest  Level FlightAware Approximate
Thu 03:16:00 PM 20.4361 -84.0138 223° Southwest  Level FlightAware Approximate
Thu 03:17:00 PM 20.3460 -84.0894 218° Southwest  Level FlightAware Approximate
Thu 03:18:00 PM 20.2515 -84.1585 214° Southwest  Level FlightAware Approximate
Thu 03:19:00 PM 20.1563 -84.2265 214° Southwest  Level FlightAware Approximate
Thu 03:20:00 PM 20.0618 -84.2956 215° Southwest  Level FlightAware Approximate
Thu 03:21:00 PM 19.9684 -84.3663 215° Southwest  Level FlightAware Approximate
Thu 03:22:00 PM 19.8749 -84.4369 215° Southwest  Level FlightAware Approximate
Thu 03:23:00 PM 19.7815 -84.5074 215° Southwest  Level FlightAware Approximate
Thu 03:24:00 PM 19.6879 -84.5779 215° Southwest  Level FlightAware Approximate
Thu 03:25:00 PM 19.5944 -84.6483 215° Southwest  Level FlightAware Approximate
Thu 03:26:00 PM 19.5009 -84.7185 215° Southwest  Level FlightAware Approximate
Thu 03:27:00 PM 19.4073 -84.7887 215° Southwest  Level FlightAware Approximate
Thu 03:28:00 PM 19.3136 -84.8589 215° Southwest  Level FlightAware Approximate
Thu 03:29:00 PM 19.2200 -84.9289 215° Southwest  Level FlightAware Approximate
Thu 03:30:00 PM 19.1263 -84.9989 215° Southwest  Level FlightAware Approximate
Thu 03:31:00 PM 19.0326 -85.0687 215° Southwest  Level FlightAware Approximate
Thu 03:32:00 PM 18.9389 -85.1385 215° Southwest  Level FlightAware Approximate
Thu 03:33:00 PM 18.8452 -85.2083 215° Southwest  Level FlightAware Approximate
Thu 03:34:00 PM 18.7514 -85.2779 215° Southwest  Level FlightAware Approximate
Thu 03:35:00 PM 18.6576 -85.3475 215° Southwest  Level FlightAware Approximate
Thu 03:36:00 PM 18.5638 -85.4170 215° Southwest  Level FlightAware Approximate
Thu 03:37:00 PM 18.4699 -85.4864 215° Southwest  Level FlightAware Approximate
Thu 03:38:00 PM 18.3760 -85.5557 215° Southwest  Level FlightAware Approximate
Thu 03:39:00 PM 18.2821 -85.6250 215° Southwest  Level FlightAware Approximate
Thu 03:40:00 PM 18.1882 -85.6942 215° Southwest  Level FlightAware Approximate
Thu 03:41:00 PM 18.0942 -85.7633 215° Southwest  Level FlightAware Approximate
Thu 03:42:00 PM 18.0003 -85.8324 215° Southwest  Level FlightAware Approximate
Thu 03:43:00 PM 17.9063 -85.9013 215° Southwest  Level FlightAware Approximate
Thu 03:44:00 PM 17.8123 -85.9702 215° Southwest  Level FlightAware Approximate
Thu 03:45:00 PM 17.7182 -86.0390 215° Southwest  Level FlightAware Approximate
Thu 03:46:00 PM 17.6241 -86.1078 215° Southwest  Level FlightAware Approximate
Thu 03:47:00 PM 17.5300 -86.1765 215° Southwest  Level FlightAware Approximate
Thu 03:48:00 PM 17.4359 -86.2451 215° Southwest  Level FlightAware Approximate
Thu 03:49:00 PM 17.3418 -86.3136 215° Southwest  Level FlightAware Approximate
Thu 03:50:00 PM 17.2476 -86.3821 215° Southwest  Level FlightAware Approximate
Thu 03:51:00 PM 17.1470 -86.4353 185° South  Level FlightAware Approximate
Thu 03:52:00 PM 17.0329 -86.4467 185° South  Level FlightAware Approximate
Thu 03:53:00 PM 16.9189 -86.4590 186° South  Level FlightAware Approximate
Thu 03:54:00 PM 16.8049 -86.4717 186° South  Level FlightAware Approximate
Thu 03:55:00 PM 16.6908 -86.4833 180° South  Level FlightAware Approximate
Thu 03:56:00 PM 16.5778 -86.4972 193° South  Level FlightAware Approximate
Thu 03:57:00 PM 16.4637 -86.5064 183° South  Level FlightAware Approximate
Thu 03:58:00 PM 16.3492 -86.5136 183° South  Level FlightAware Approximate
Thu 03:59:00 PM 16.2731 -86.5764 237° Southwest  Level FlightAware Approximate
Thu 04:00:00 PM 16.2106 -86.6765 237° Southwest  Level FlightAware Approximate
Thu 04:01:00 PM 16.1480 -86.7765 237° Southwest  Level FlightAware Approximate
Thu 04:02:00 PM 16.0844 -86.8757 238° Southwest  Level FlightAware Approximate
Thu 04:03:00 PM 16.0231 -86.9765 238° Southwest  Level FlightAware Approximate
Thu 04:04:00 PM 15.9618 -87.0773 238° Southwest  Level FlightAware Approximate
Thu 04:05:00 PM 15.9004 -87.1780 238° Southwest  Level FlightAware Approximate
Thu 04:06:00 PM 15.8394 -87.2788 238° Southwest  Level FlightAware Approximate
Thu 04:07:00 PM 15.7836 -87.3828 243° Southwest  Level FlightAware Approximate
Thu 04:08:00 PM 15.7204 -87.4822 237° Southwest  Level FlightAware Approximate
Thu 04:09:00 PM 15.6569 -87.5813 235° Southwest  Level FlightAware Approximate
Thu 04:10:00 PM 15.5917 -87.6792 235° Southwest  Level FlightAware Approximate
Thu 04:11:00 PM 15.5356 -87.7800 235° Southwest  Level FlightAware Approximate
Thu 04:12:00 PM 15.4759 -87.8815 243° Southwest  Level FlightAware Approximate
Thu 04:13:00 PM 15.4526 -87.9236 270° West  Level Estimated
Thu 04:14:00 PM 15.4526 -87.9236 270° West  Level Estimated
Thu 04:15:00 PM 15.4526 -87.9236 270° West  Level Estimated
Thu 04:16:00 PM 15.4526 -87.9236 270° West  Level Estimated
Thu 04:17:00 PM 15.4526 -87.9236 270° West  Level Estimated
Thu 04:18:00 PM 15.4526 -87.9236 270° West  Level Estimated
Thu 04:19:00 PM 15.4526 -87.9236 270° West  Level Estimated
Thu 04:20:00 PM 15.4526 -87.9236 270° West  Level Estimated
Thu 04:21:00 PM 15.4526 -87.9236 270° West  Level Estimated
Thu 04:22:00 PM 15.4526 -87.9236 270° West  Level Estimated
Thu 04:23:00 PM 15.4526 -87.9236 270° West  Level Estimated
Thu 04:24:00 PM 15.4526 -87.9236 270° West  Level Estimated
Thu 04:25:00 PM 15.4526 -87.9236 270° West  Level Estimated
Thu 04:26:00 PM 15.4526 -87.9236 270° West  Level Estimated
Thu 04:27:00 PM 15.4526 -87.9236 270° West  Level Estimated
Thu 04:28:00 PM 15.4526 -87.9236 270° West  Level Estimated

Login

Don't have an account? Register now (free) for customized features, flight alerts, and more!